createdAt,value
2019-02-14T00:00:51.984Z,99.90
2019-02-14T00:03:21.282Z,99.90
2019-02-14T00:05:50.526Z,99.90
2019-02-14T00:08:19.820Z,99.90
2019-02-14T00:10:49.167Z,99.90
2019-02-14T00:13:18.634Z,99.90
2019-02-14T00:15:47.921Z,99.90
2019-02-14T00:18:17.871Z,99.90
2019-02-14T00:20:47.140Z,99.90
2019-02-14T00:23:16.489Z,99.90
2019-02-14T00:25:45.788Z,99.90
2019-02-14T00:28:15.023Z,99.90
2019-02-14T00:30:44.298Z,99.90
2019-02-14T00:33:13.631Z,99.90
2019-02-14T00:35:42.887Z,99.90
2019-02-14T00:38:12.186Z,99.90
2019-02-14T00:40:41.449Z,99.90
2019-02-14T00:43:10.669Z,99.90
2019-02-14T00:45:39.946Z,99.90
2019-02-14T00:48:09.217Z,99.90
2019-02-14T00:50:38.484Z,99.90
2019-02-14T00:53:07.721Z,99.90
2019-02-14T00:55:36.918Z,99.90
2019-02-14T00:58:06.241Z,99.90
2019-02-14T01:00:36.963Z,99.90
2019-02-14T01:03:06.240Z,99.90
2019-02-14T01:05:35.866Z,99.90
2019-02-14T01:08:05.125Z,99.90
2019-02-14T01:10:34.442Z,99.90
2019-02-14T01:13:03.814Z,99.90
2019-02-14T01:15:33.979Z,99.90
2019-02-14T01:18:03.272Z,99.90
2019-02-14T01:20:33.755Z,99.90
2019-02-14T01:23:03.108Z,99.90
2019-02-14T01:25:32.326Z,99.90
2019-02-14T01:28:01.636Z,99.90
2019-02-14T01:30:30.938Z,99.90
2019-02-14T01:33:00.188Z,99.90
2019-02-14T01:35:29.486Z,99.90
2019-02-14T01:37:58.742Z,99.90
2019-02-14T01:40:28.030Z,99.90
2019-02-14T01:42:57.317Z,99.90
2019-02-14T01:45:26.823Z,99.90
2019-02-14T01:47:56.103Z,99.90
2019-02-14T01:50:25.385Z,99.90
2019-02-14T01:52:54.745Z,99.90
2019-02-14T01:55:24.046Z,99.90
2019-02-14T01:57:53.322Z,99.90
2019-02-14T02:00:22.618Z,99.90
2019-02-14T02:02:51.914Z,99.90
2019-02-14T02:05:21.311Z,99.90
2019-02-14T02:07:50.603Z,99.90
2019-02-14T02:10:19.935Z,99.90
2019-02-14T02:12:49.285Z,99.90
2019-02-14T02:15:18.641Z,99.90
2019-02-14T02:17:47.941Z,99.90
2019-02-14T02:20:17.236Z,99.90
2019-02-14T02:22:46.505Z,99.90
2019-02-14T02:25:15.785Z,99.90
2019-02-14T02:27:45.064Z,99.90
2019-02-14T02:30:14.825Z,99.90
2019-02-14T02:32:44.025Z,99.90
2019-02-14T02:35:13.399Z,99.90
2019-02-14T02:37:42.675Z,99.90
2019-02-14T02:40:12.088Z,99.90
2019-02-14T02:42:41.359Z,99.90
2019-02-14T02:45:12.232Z,99.90
2019-02-14T02:47:41.624Z,99.90
2019-02-14T02:50:12.271Z,99.90
2019-02-14T02:52:41.543Z,99.90
2019-02-14T02:55:10.946Z,99.90
2019-02-14T02:57:40.227Z,99.90
2019-02-14T03:00:12.678Z,99.90
2019-02-14T03:02:41.883Z,99.90
2019-02-14T03:05:12.234Z,99.90
2019-02-14T03:07:41.592Z,99.90
2019-02-14T03:10:11.642Z,99.90
2019-02-14T03:12:40.833Z,99.90
2019-02-14T03:15:12.462Z,99.90
2019-02-14T03:17:41.729Z,99.90
2019-02-14T03:20:11.610Z,99.90
2019-02-14T03:22:40.893Z,99.90
2019-02-14T03:25:12.922Z,99.90
2019-02-14T03:27:42.284Z,99.90
2019-02-14T03:30:12.437Z,99.90
2019-02-14T03:32:41.668Z,99.90
2019-02-14T03:35:10.951Z,99.90
2019-02-14T03:37:40.296Z,99.90
2019-02-14T03:40:10.669Z,99.90
2019-02-14T03:42:40.010Z,99.90
2019-02-14T03:45:12.205Z,99.90
2019-02-14T03:47:41.497Z,99.90
2019-02-14T03:50:11.021Z,99.90
2019-02-14T03:52:40.211Z,99.90
2019-02-14T03:55:09.539Z,99.90
2019-02-14T03:57:39.097Z,99.90
2019-02-14T04:00:11.479Z,99.90
2019-02-14T04:02:40.742Z,99.90
2019-02-14T04:05:10.053Z,99.90
2019-02-14T04:07:39.465Z,99.90
2019-02-14T04:10:10.102Z,99.90
2019-02-14T04:12:39.365Z,99.90
2019-02-14T04:15:10.697Z,99.90
2019-02-14T04:17:39.993Z,99.90
2019-02-14T04:20:09.373Z,99.90
2019-02-14T04:22:38.650Z,99.90
2019-02-14T04:25:08.099Z,99.90
2019-02-14T04:27:37.393Z,99.90
2019-02-14T04:30:07.332Z,99.90
2019-02-14T04:32:36.622Z,99.90
2019-02-14T04:35:06.157Z,99.90
2019-02-14T04:37:35.455Z,99.90
2019-02-14T04:40:05.286Z,99.90
2019-02-14T04:42:34.645Z,99.90
2019-02-14T04:45:05.598Z,99.90
2019-02-14T04:47:34.893Z,99.90
2019-02-14T04:50:04.352Z,99.90
2019-02-14T04:52:33.633Z,99.90
2019-02-14T04:55:02.895Z,99.90
2019-02-14T04:57:32.250Z,99.90
2019-02-14T05:00:01.434Z,99.90
2019-02-14T05:02:30.735Z,99.90
2019-02-14T05:04:59.985Z,99.90
2019-02-14T05:07:29.278Z,99.90
2019-02-14T05:09:58.546Z,99.90
2019-02-14T05:12:27.827Z,99.90
2019-02-14T05:14:57.095Z,99.90
2019-02-14T05:17:26.461Z,99.90
2019-02-14T05:19:55.741Z,99.90
2019-02-14T05:22:25.049Z,99.90
2019-02-14T05:24:54.301Z,99.90
2019-02-14T05:27:23.588Z,99.90
2019-02-14T05:29:52.861Z,99.90
2019-02-14T05:32:22.141Z,99.90
2019-02-14T05:34:51.336Z,99.90
2019-02-14T05:37:20.619Z,99.90
2019-02-14T05:39:49.885Z,99.90
2019-02-14T05:42:19.149Z,99.90
2019-02-14T05:44:48.375Z,99.90
2019-02-14T05:47:17.762Z,99.90
2019-02-14T05:49:47.063Z,99.90
2019-02-14T05:52:16.361Z,99.90
2019-02-14T05:54:45.626Z,99.90
2019-02-14T05:57:14.903Z,99.90
2019-02-14T05:59:44.169Z,99.90
2019-02-14T06:02:13.918Z,99.90
2019-02-14T06:04:43.166Z,99.90
2019-02-14T06:07:12.471Z,99.90
2019-02-14T06:09:41.805Z,99.90
2019-02-14T06:12:11.002Z,99.90
2019-02-14T06:14:40.293Z,99.90
2019-02-14T06:17:09.518Z,99.90
2019-02-14T06:19:38.791Z,99.90
2019-02-14T06:22:08.041Z,99.90
2019-02-14T06:24:37.271Z,99.90
2019-02-14T06:27:06.547Z,99.90
2019-02-14T06:29:35.833Z,99.90
2019-02-14T06:32:05.041Z,99.90
2019-02-14T06:34:53.465Z,99.90
2019-02-14T06:37:22.666Z,99.90
2019-02-14T06:39:51.940Z,99.90
2019-02-14T06:42:21.321Z,99.90
2019-02-14T06:44:50.506Z,99.90
2019-02-14T06:47:19.852Z,99.90
2019-02-14T06:49:49.155Z,99.90
2019-02-14T06:52:18.431Z,99.90
2019-02-14T06:54:47.720Z,99.90
2019-02-14T06:57:16.983Z,99.90
2019-02-14T06:59:46.187Z,99.90
2019-02-14T07:02:15.436Z,99.90
2019-02-14T07:04:44.653Z,99.90
2019-02-14T07:07:18.669Z,99.90
2019-02-14T07:09:44.779Z,99.90
2019-02-14T07:12:14.046Z,99.90
2019-02-14T07:14:43.349Z,99.90
2019-02-14T07:17:12.614Z,99.90
2019-02-14T07:19:41.969Z,99.90
2019-02-14T07:22:11.261Z,99.90
2019-02-14T07:24:40.648Z,99.90
2019-02-14T07:27:09.863Z,99.90
2019-02-14T07:29:39.163Z,99.90
2019-02-14T07:32:08.421Z,99.90
2019-02-14T07:34:37.728Z,99.90
2019-02-14T07:37:07.282Z,99.90
2019-02-14T07:39:36.615Z,99.90
2019-02-14T07:42:05.973Z,99.90
2019-02-14T07:44:35.320Z,99.90
2019-02-14T07:47:04.622Z,99.90
2019-02-14T07:49:52.961Z,99.90
2019-02-14T07:52:25.243Z,99.90
2019-02-14T07:54:53.295Z,99.90
2019-02-14T07:57:22.509Z,99.90
2019-02-14T07:59:51.833Z,99.90
2019-02-14T08:02:21.085Z,99.90
2019-02-14T08:04:50.382Z,99.90
2019-02-14T08:07:19.722Z,99.90
2019-02-14T08:09:49.106Z,99.90
2019-02-14T08:12:18.369Z,99.90
2019-02-14T08:14:47.674Z,99.90
2019-02-14T08:17:16.935Z,99.90
2019-02-14T08:19:46.274Z,99.90
2019-02-14T08:22:15.586Z,99.90
2019-02-14T08:24:44.783Z,99.90
2019-02-14T08:27:14.105Z,99.90
2019-02-14T08:29:43.389Z,99.90
2019-02-14T08:32:12.594Z,99.90
2019-02-14T08:34:41.818Z,99.90
2019-02-14T08:37:11.155Z,99.90
2019-02-14T08:39:40.522Z,99.90
2019-02-14T08:42:09.994Z,99.90
2019-02-14T08:44:39.277Z,99.90
2019-02-14T08:47:08.549Z,99.90
2019-02-14T08:49:37.847Z,99.90
2019-02-14T08:52:07.133Z,99.90
2019-02-14T08:54:36.495Z,99.90
2019-02-14T08:57:05.755Z,99.90
2019-02-14T08:59:35.046Z,99.90
2019-02-14T09:02:04.327Z,99.90
2019-02-14T09:04:33.702Z,99.90
2019-02-14T09:07:03.039Z,99.90
2019-02-14T09:09:32.317Z,99.90
2019-02-14T09:12:01.619Z,99.90
2019-02-14T09:14:31.056Z,99.90
2019-02-14T09:17:00.785Z,99.90
2019-02-14T09:19:30.250Z,99.90
2019-02-14T09:21:59.533Z,99.90
2019-02-14T09:24:28.729Z,99.90
2019-02-14T09:26:58.144Z,99.90
2019-02-14T09:29:27.514Z,99.90
2019-02-14T09:31:56.830Z,99.90
2019-02-14T09:34:26.176Z,99.90
2019-02-14T09:36:55.476Z,99.90
2019-02-14T09:39:24.755Z,99.90
2019-02-14T09:41:54.053Z,99.90
2019-02-14T09:44:23.321Z,99.90
2019-02-14T09:46:52.617Z,99.90
2019-02-14T09:49:21.864Z,99.90
2019-02-14T09:51:51.151Z,99.90
2019-02-14T09:54:20.413Z,99.90
2019-02-14T09:56:49.724Z,99.90
2019-02-14T09:59:18.997Z,99.90
2019-02-14T10:01:48.321Z,99.90
2019-02-14T10:04:17.582Z,99.90
2019-02-14T10:06:46.964Z,99.90
2019-02-14T10:09:16.208Z,99.90
2019-02-14T10:11:45.538Z,99.90
2019-02-14T10:14:14.861Z,99.90
2019-02-14T10:16:44.166Z,99.90
2019-02-14T10:19:13.398Z,99.90
2019-02-14T10:21:42.605Z,99.90
2019-02-14T10:24:11.857Z,99.90
2019-02-14T10:26:41.136Z,99.90
2019-02-14T10:29:10.414Z,99.90
2019-02-14T10:31:39.692Z,99.90
2019-02-14T10:34:08.974Z,99.90
2019-02-14T10:36:38.166Z,99.90
2019-02-14T10:39:07.941Z,99.90
2019-02-14T10:41:37.227Z,99.90
2019-02-14T10:44:06.627Z,99.90
2019-02-14T10:46:35.921Z,99.90
2019-02-14T10:49:05.323Z,99.90
2019-02-14T10:51:34.590Z,99.90
2019-02-14T10:56:39.874Z,99.70
2019-02-14T10:59:09.112Z,98.40
2019-02-14T11:01:38.375Z,97.50
2019-02-14T11:06:37.154Z,98.40
2019-02-14T11:09:07.167Z,96.90
2019-02-14T11:11:36.411Z,97.20
2019-02-14T11:14:05.635Z,98.00
2019-02-14T11:16:35.027Z,97.70
2019-02-14T11:19:04.312Z,96.50
2019-02-14T11:21:33.504Z,96.20
2019-02-14T11:24:02.740Z,94.40
2019-02-14T11:26:32.035Z,94.00
2019-02-14T11:29:01.187Z,92.80
2019-02-14T11:31:30.358Z,93.30
2019-02-14T11:33:59.591Z,92.00
2019-02-14T11:36:28.845Z,91.80
2019-02-14T11:38:58.172Z,90.70
2019-02-14T11:41:30.486Z,91.20
2019-02-14T11:43:59.935Z,90.60
2019-02-14T11:46:29.228Z,90.70
2019-02-14T11:48:58.439Z,89.50
2019-02-14T11:51:27.978Z,89.80
2019-02-14T11:53:57.316Z,86.50
2019-02-14T11:56:26.696Z,86.40
2019-02-14T11:58:55.871Z,86.80
2019-02-14T12:01:25.202Z,86.50
2019-02-14T12:03:54.476Z,84.40
2019-02-14T12:06:23.867Z,83.10
2019-02-14T12:08:59.802Z,81.90
2019-02-14T12:11:24.167Z,81.80
2019-02-14T12:13:53.627Z,80.90
2019-02-14T12:16:23.034Z,82.00
2019-02-14T12:18:52.334Z,81.70
2019-02-14T12:21:21.664Z,80.30
2019-02-14T12:23:51.144Z,82.10
2019-02-14T12:26:20.385Z,82.00
2019-02-14T12:28:49.663Z,82.00
2019-02-14T12:31:18.848Z,79.90
2019-02-14T12:33:48.078Z,78.10
2019-02-14T12:36:17.488Z,78.10
2019-02-14T12:38:46.775Z,76.80
2019-02-14T12:41:16.051Z,77.10
2019-02-14T12:43:45.315Z,76.00
2019-02-14T12:46:14.634Z,76.50
2019-02-14T12:48:43.929Z,76.40
2019-02-14T12:51:13.231Z,75.50
2019-02-14T12:53:42.482Z,74.70
2019-02-14T12:56:11.825Z,74.50
2019-02-14T12:58:41.173Z,74.20
2019-02-14T13:01:10.465Z,72.10
2019-02-14T13:03:39.887Z,71.80
2019-02-14T13:06:09.261Z,70.90
2019-02-14T13:08:38.467Z,70.60
2019-02-14T13:11:07.683Z,70.20
2019-02-14T13:13:36.929Z,70.00
2019-02-14T13:16:06.236Z,67.60
2019-02-14T13:18:35.560Z,67.30
2019-02-14T13:21:04.783Z,67.40
2019-02-14T13:23:34.030Z,66.40
2019-02-14T13:26:03.276Z,65.30
2019-02-14T13:28:32.867Z,66.10
2019-02-14T13:31:02.123Z,65.80
2019-02-14T13:33:31.351Z,65.70
2019-02-14T13:36:00.635Z,66.00
2019-02-14T13:38:29.971Z,65.40
2019-02-14T13:40:59.372Z,66.30
2019-02-14T13:43:28.671Z,68.10
2019-02-14T13:45:58.050Z,69.10
2019-02-14T13:48:27.252Z,69.60
2019-02-14T13:50:56.555Z,71.00
2019-02-14T13:53:25.803Z,73.10
2019-02-14T13:55:55.098Z,75.30
2019-02-14T13:58:24.441Z,77.70
2019-02-14T14:00:53.714Z,79.70
2019-02-14T14:03:22.895Z,81.10
2019-02-14T14:05:52.184Z,84.10
2019-02-14T14:08:21.438Z,86.00
2019-02-14T14:10:50.687Z,89.00
2019-02-14T14:13:19.863Z,90.70
2019-02-14T14:15:49.189Z,91.90
2019-02-14T14:18:18.486Z,92.40
2019-02-14T14:20:47.694Z,92.80
2019-02-14T14:23:16.853Z,93.70
2019-02-14T14:25:45.989Z,95.30
2019-02-14T14:28:15.372Z,96.00
2019-02-14T14:30:44.580Z,96.70
2019-02-14T14:33:13.718Z,97.70
2019-02-14T14:35:42.897Z,98.00
2019-02-14T14:38:12.631Z,98.40
2019-02-14T14:40:42.372Z,98.80
2019-02-14T14:43:33.650Z,99.60
2019-02-14T14:46:27.923Z,99.90
2019-02-14T14:48:57.245Z,99.90
2019-02-14T14:51:26.715Z,99.90
2019-02-14T14:53:55.967Z,99.90
2019-02-14T14:56:25.127Z,99.90
2019-02-14T14:58:54.395Z,99.90
2019-02-14T15:01:23.543Z,99.90
2019-02-14T15:03:52.708Z,99.90
2019-02-14T15:06:21.847Z,99.90
2019-02-14T15:08:51.039Z,99.90
2019-02-14T15:11:20.173Z,99.90
2019-02-14T15:13:49.428Z,99.90
2019-02-14T15:16:18.569Z,99.90
2019-02-14T15:18:47.812Z,99.90
2019-02-14T15:21:16.963Z,99.90
2019-02-14T15:23:46.161Z,99.90
2019-02-14T15:26:15.424Z,99.90
2019-02-14T15:28:44.641Z,99.90
2019-02-14T15:31:13.872Z,99.90
2019-02-14T15:33:43.111Z,99.90
2019-02-14T15:36:12.421Z,99.90
2019-02-14T15:38:41.588Z,99.90
2019-02-14T15:41:10.848Z,99.90
2019-02-14T15:43:40.317Z,99.90
2019-02-14T15:46:09.632Z,99.90
2019-02-14T15:48:39.060Z,99.90
2019-02-14T15:51:08.211Z,99.90
2019-02-14T15:53:37.535Z,99.90
2019-02-14T15:56:07.840Z,99.90
2019-02-14T15:58:37.396Z,99.90
2019-02-14T16:01:07.541Z,99.90
2019-02-14T16:03:38.405Z,99.90
2019-02-14T16:06:07.767Z,99.90
2019-02-14T16:08:36.928Z,99.90
2019-02-14T16:11:06.207Z,99.90
2019-02-14T16:13:35.450Z,99.90
2019-02-14T16:16:04.711Z,99.90
2019-02-14T16:18:33.872Z,99.90
2019-02-14T16:21:03.704Z,99.90
2019-02-14T16:23:34.320Z,99.90
2019-02-14T16:26:03.734Z,99.90
2019-02-14T16:28:32.863Z,99.90
2019-02-14T16:31:02.024Z,99.90
2019-02-14T16:33:31.150Z,99.90
2019-02-14T16:36:00.391Z,99.90
2019-02-14T16:38:32.607Z,99.90
2019-02-14T16:41:02.471Z,99.90
2019-02-14T16:43:32.087Z,99.90
2019-02-14T16:46:01.241Z,99.90
2019-02-14T16:48:30.467Z,99.90
2019-02-14T16:50:59.643Z,99.90
2019-02-14T16:53:28.883Z,99.90
2019-02-14T16:56:02.066Z,99.90
2019-02-14T16:58:28.917Z,99.90
2019-02-14T17:00:58.285Z,99.90
2019-02-14T17:03:27.704Z,99.90
2019-02-14T17:05:56.927Z,99.90
2019-02-14T17:08:26.145Z,99.90
2019-02-14T17:10:55.363Z,99.90
2019-02-14T17:13:24.524Z,99.90
2019-02-14T17:15:53.635Z,99.90
2019-02-14T17:18:22.819Z,99.90
2019-02-14T17:20:52.024Z,99.90
2019-02-14T17:23:21.311Z,99.90
2019-02-14T17:25:50.609Z,99.90
2019-02-14T17:28:19.836Z,99.90
2019-02-14T17:30:49.102Z,99.90
2019-02-14T17:33:18.312Z,99.90
2019-02-14T17:35:47.463Z,99.90
2019-02-14T17:38:16.624Z,99.90
2019-02-14T17:40:46.517Z,99.90
2019-02-14T17:43:15.786Z,99.90
2019-02-14T17:45:44.955Z,99.90
2019-02-14T17:48:14.171Z,99.90
2019-02-14T17:50:43.311Z,99.90
2019-02-14T17:53:12.528Z,99.90
2019-02-14T17:55:41.651Z,99.90
2019-02-14T17:58:10.984Z,99.90
2019-02-14T18:00:41.565Z,99.90
2019-02-14T18:03:10.711Z,99.90
2019-02-14T18:05:39.843Z,99.90
2019-02-14T18:08:09.074Z,99.90
2019-02-14T18:10:38.187Z,99.90
2019-02-14T18:13:07.322Z,99.90
2019-02-14T18:15:36.460Z,99.90
2019-02-14T18:18:05.610Z,99.90
2019-02-14T18:20:35.607Z,99.90
2019-02-14T18:23:05.181Z,99.90
2019-02-14T18:25:34.435Z,99.90
2019-02-14T18:28:03.782Z,99.90
2019-02-14T18:30:32.970Z,99.90
2019-02-14T18:33:02.218Z,99.90
2019-02-14T18:35:31.419Z,99.90
2019-02-14T18:38:00.571Z,99.90
2019-02-14T18:40:29.705Z,99.90
2019-02-14T18:42:58.926Z,99.90
2019-02-14T18:45:28.059Z,99.90
2019-02-14T18:47:57.250Z,99.90
2019-02-14T18:50:26.509Z,99.90
2019-02-14T18:52:55.771Z,99.90
2019-02-14T18:55:25.041Z,99.90
2019-02-14T18:57:54.172Z,99.90
2019-02-14T19:00:23.632Z,99.90
2019-02-14T19:02:52.882Z,99.90
2019-02-14T19:05:22.507Z,99.90
2019-02-14T19:07:51.751Z,99.90
2019-02-14T19:10:21.030Z,99.90
2019-02-14T19:12:50.166Z,99.90
2019-02-14T19:15:19.304Z,99.90
2019-02-14T19:17:48.439Z,99.90
2019-02-14T19:20:17.785Z,99.90
2019-02-14T19:22:46.985Z,99.90
2019-02-14T19:25:16.124Z,99.90
2019-02-14T19:27:45.268Z,99.90
2019-02-14T19:30:15.030Z,99.90
2019-02-14T19:32:44.515Z,99.90
2019-02-14T19:35:22.478Z,99.90
2019-02-14T19:37:45.061Z,99.90
2019-02-14T19:40:14.296Z,99.90
2019-02-14T19:42:43.467Z,99.90
2019-02-14T19:45:12.774Z,99.90
2019-02-14T19:47:41.969Z,99.90
2019-02-14T19:50:11.200Z,99.90
2019-02-14T19:52:40.357Z,99.90
2019-02-14T19:55:09.606Z,99.90
2019-02-14T19:57:38.862Z,99.90
2019-02-14T20:00:09.890Z,99.90
2019-02-14T20:02:39.389Z,99.90
2019-02-14T20:05:09.344Z,99.90
2019-02-14T20:07:38.530Z,99.90
2019-02-14T20:10:09.196Z,99.90
2019-02-14T20:12:38.506Z,99.90
2019-02-14T20:15:10.335Z,99.90
2019-02-14T20:17:39.559Z,99.90
2019-02-14T20:20:09.545Z,99.90
2019-02-14T20:22:38.740Z,99.90
2019-02-14T20:25:08.930Z,99.90
2019-02-14T20:27:38.054Z,99.90
2019-02-14T20:30:07.852Z,99.90
2019-02-14T20:32:37.028Z,99.90
2019-02-14T20:35:06.191Z,99.90
2019-02-14T20:37:35.348Z,99.90
2019-02-14T20:40:06.232Z,99.90
2019-02-14T20:42:35.574Z,99.90
2019-02-14T20:45:05.018Z,99.90
2019-02-14T20:47:34.253Z,99.90
2019-02-14T20:50:03.494Z,99.90
2019-02-14T20:52:32.807Z,99.90
2019-02-14T20:55:02.051Z,99.90
2019-02-14T20:57:31.308Z,99.90
2019-02-14T21:00:00.517Z,99.90
2019-02-14T21:02:29.700Z,99.90
2019-02-14T21:04:58.920Z,99.90
2019-02-14T21:07:28.421Z,99.90
2019-02-14T21:09:57.576Z,99.90
2019-02-14T21:12:26.774Z,99.90
2019-02-14T21:14:56.546Z,99.90
2019-02-14T21:17:25.787Z,99.90
2019-02-14T21:19:54.941Z,99.90
2019-02-14T21:22:24.071Z,99.90
2019-02-14T21:24:53.308Z,99.90
2019-02-14T21:27:22.717Z,99.90
2019-02-14T21:29:52.924Z,99.90
2019-02-14T21:32:22.235Z,99.90
2019-02-14T21:34:54.047Z,99.90
2019-02-14T21:37:23.260Z,99.90
2019-02-14T21:39:52.451Z,99.90
2019-02-14T21:42:24.837Z,99.90
2019-02-14T21:44:52.663Z,99.90
2019-02-14T21:47:21.940Z,99.90
2019-02-14T21:49:51.223Z,99.90
2019-02-14T21:52:20.466Z,99.90
2019-02-14T21:54:49.849Z,99.90
2019-02-14T21:57:19.143Z,99.90
2019-02-14T21:59:48.419Z,99.90
2019-02-14T22:02:17.664Z,99.90
2019-02-14T22:04:46.869Z,99.90
2019-02-14T22:07:16.097Z,99.90
2019-02-14T22:09:45.290Z,99.90
2019-02-14T22:12:37.183Z,99.90
2019-02-14T22:14:49.327Z,99.90
2019-02-14T22:17:18.614Z,99.90
2019-02-14T22:19:47.829Z,99.90
2019-02-14T22:22:17.047Z,99.90
2019-02-14T22:24:46.352Z,99.90
2019-02-14T22:27:15.570Z,99.90
2019-02-14T22:29:44.701Z,99.90
2019-02-14T22:32:14.026Z,99.90
2019-02-14T22:34:43.143Z,99.90
2019-02-14T22:37:12.296Z,99.90
2019-02-14T22:39:41.441Z,99.90
2019-02-14T22:42:11.064Z,99.90
2019-02-14T22:44:40.297Z,99.90
2019-02-14T22:47:09.566Z,99.90
2019-02-14T22:49:38.723Z,99.90
2019-02-14T22:52:08.048Z,99.90
2019-02-14T22:54:37.158Z,99.90
2019-02-14T22:57:06.309Z,99.90
2019-02-14T22:59:35.580Z,99.90
2019-02-14T23:02:04.747Z,99.90
2019-02-14T23:04:33.905Z,99.90
2019-02-14T23:07:03.342Z,99.90
2019-02-14T23:09:32.586Z,99.90
2019-02-14T23:12:05.217Z,99.90
2019-02-14T23:14:34.475Z,99.90
2019-02-14T23:17:03.981Z,99.90
2019-02-14T23:19:36.123Z,99.90
2019-02-14T23:22:05.347Z,99.90
2019-02-14T23:24:34.461Z,99.90
2019-02-14T23:27:04.456Z,99.90
2019-02-14T23:29:33.699Z,99.90
2019-02-14T23:32:02.949Z,99.90
2019-02-14T23:34:32.242Z,99.90
2019-02-14T23:37:01.383Z,99.90
2019-02-14T23:39:30.580Z,99.90
2019-02-14T23:41:59.725Z,99.90
2019-02-14T23:44:28.850Z,99.90
2019-02-14T23:47:00.016Z,99.90
2019-02-14T23:49:29.218Z,99.90
2019-02-14T23:51:58.483Z,99.90
2019-02-14T23:54:27.676Z,99.90
2019-02-14T23:56:58.138Z,99.90
2019-02-14T23:59:27.635Z,99.90
